Time;durP1;ratioP1;P1;durP2;ratioP2;P2;SDS_P1;SDS_P2;PMS_P1;PMS_P2;Temp;Humidity;BMP_temperature;BMP_pressure;BME280_temperature;BME280_humidity;BME280_pressure;Samples;Min_cycle;Max_cycle;Signal;HPM_P1;HPM_P2
2022/11/15 00:00:51;;;;;;;7.38;5.28;;;9.40;85.70;;;;;;5031389;28;20041;-59
2022/11/15 00:03:20;;;;;;;6.90;5.00;;;9.40;85.70;;;;;;5034072;28;20128;-61
2022/11/15 00:05:46;;;;;;;7.53;5.18;;;9.40;85.60;;;;;;5036052;28;20044;-61
2022/11/15 00:08:12;;;;;;;6.07;4.70;;;9.30;85.40;;;;;;5035019;28;20148;-60
2022/11/15 00:10:38;;;;;;;7.50;5.30;;;9.30;85.30;;;;;;5030132;28;20037;-60
2022/11/15 00:13:11;;;;;;;6.60;5.13;;;9.30;85.30;;;;;;5034777;28;20048;-60
2022/11/15 00:15:41;;;;;;;7.78;4.95;;;9.20;85.30;;;;;;5036016;28;20029;-60
2022/11/15 00:18:15;;;;;;;8.00;5.20;;;9.30;85.20;;;;;;5037165;28;20524;-59
2022/11/15 00:20:41;;;;;;;7.30;5.05;;;9.30;85.20;;;;;;5034101;28;20063;-59
2022/11/15 00:23:07;;;;;;;6.95;5.13;;;9.20;85.20;;;;;;5033321;28;20508;-61
2022/11/15 00:25:33;;;;;;;7.53;5.20;;;9.20;85.30;;;;;;5028263;28;20409;-59
2022/11/15 00:27:59;;;;;;;6.30;4.97;;;9.20;85.20;;;;;;5034863;28;20041;-61
2022/11/15 00:30:26;;;;;;;7.10;5.05;;;9.20;85.20;;;;;;5035612;28;20040;-61
2022/11/15 00:32:51;;;;;;;8.23;4.85;;;9.10;85.10;;;;;;5035351;28;20047;-60
2022/11/15 00:35:18;;;;;;;6.28;4.85;;;9.20;85.20;;;;;;5033440;28;20049;-60
2022/11/15 00:37:43;;;;;;;6.78;4.88;;;9.10;85.10;;;;;;5034086;28;20037;-60
2022/11/15 00:40:10;;;;;;;7.38;4.85;;;9.10;85.10;;;;;;5033778;28;20045;-59
2022/11/15 00:42:35;;;;;;;5.88;4.85;;;9.10;85.30;;;;;;5031212;28;20080;-60
2022/11/15 00:45:01;;;;;;;6.20;4.80;;;9.10;85.50;;;;;;5031369;28;20033;-59
2022/11/15 00:47:27;;;;;;;8.05;5.35;;;9.00;85.70;;;;;;5034845;28;20037;-61
2022/11/15 00:49:52;;;;;;;7.40;4.80;;;9.00;86.00;;;;;;5033254;28;20591;-61
2022/11/15 00:52:18;;;;;;;8.43;4.97;;;9.00;86.20;;;;;;5032709;28;20106;-59
2022/11/15 00:54:43;;;;;;;6.63;5.00;;;9.00;86.30;;;;;;5034905;28;20037;-59
2022/11/15 00:57:09;;;;;;;6.28;4.55;;;9.00;86.40;;;;;;5034668;28;20080;-60
2022/11/15 00:59:35;;;;;;;7.93;4.95;;;9.00;86.30;;;;;;5036766;28;20055;-60
2022/11/15 01:02:01;;;;;;;9.55;5.10;;;9.00;86.30;;;;;;5036533;28;20025;-59
2022/11/15 01:04:26;;;;;;;8.95;5.30;;;9.00;86.20;;;;;;5036857;28;20037;-61
2022/11/15 01:06:52;;;;;;;10.15;5.47;;;9.00;86.00;;;;;;5036734;28;20211;-59
2022/11/15 01:09:18;;;;;;;10.35;5.70;;;9.00;86.00;;;;;;5036638;28;20033;-60
2022/11/15 01:11:43;;;;;;;10.73;7.00;;;9.00;86.10;;;;;;5034016;28;20042;-58
2022/11/15 01:14:09;;;;;;;11.02;6.93;;;8.90;86.00;;;;;;5037663;28;20574;-60
2022/11/15 01:16:34;;;;;;;10.70;6.22;;;8.90;86.20;;;;;;5040431;28;20115;-59
2022/11/15 01:19:00;;;;;;;9.13;6.20;;;8.90;86.20;;;;;;5041369;28;20029;-59
2022/11/15 01:21:25;;;;;;;10.32;6.22;;;8.80;86.20;;;;;;5036275;28;20992;-61
2022/11/15 01:23:55;;;;;;;9.95;6.25;;;8.90;86.40;;;;;;5035199;28;20037;-61
2022/11/15 01:26:21;;;;;;;7.97;5.80;;;8.80;86.20;;;;;;5036760;28;20044;-59
2022/11/15 01:28:47;;;;;;;7.47;5.45;;;8.80;86.00;;;;;;5039523;28;20408;-61
2022/11/15 01:31:16;;;;;;;8.10;5.57;;;8.80;85.80;;;;;;5038242;28;20112;-61
2022/11/15 01:33:42;;;;;;;9.38;5.10;;;8.80;85.70;;;;;;5036535;28;20038;-62
2022/11/15 01:36:12;;;;;;;6.90;5.20;;;8.80;85.60;;;;;;5037037;28;20033;-61
2022/11/15 01:38:37;;;;;;;6.88;5.13;;;8.80;85.40;;;;;;5037670;28;20057;-60
2022/11/15 01:41:04;;;;;;;7.80;5.03;;;8.80;85.40;;;;;;5038460;28;20057;-61
2022/11/15 01:43:35;;;;;;;9.27;5.13;;;8.70;85.10;;;;;;5037212;28;20040;-60
2022/11/15 01:46:14;;;;;;;7.75;5.55;;;8.80;84.70;;;;;;5034316;28;20057;-59
2022/11/15 01:48:40;;;;;;;7.15;5.10;;;8.70;84.50;;;;;;5038624;28;20041;-61
2022/11/15 01:51:10;;;;;;;7.07;5.53;;;8.60;84.60;;;;;;5036656;28;20056;-59
2022/11/15 01:53:40;;;;;;;9.38;6.00;;;8.60;84.80;;;;;;5037376;28;20037;-59
2022/11/15 01:56:10;;;;;;;6.57;5.15;;;8.60;84.60;;;;;;5035806;28;20032;-59
2022/11/15 01:58:36;;;;;;;7.80;5.00;;;8.50;84.50;;;;;;5038101;28;20062;-61
2022/11/15 02:01:02;;;;;;;10.40;5.47;;;8.40;84.40;;;;;;5039864;28;20021;-59
2022/11/15 02:03:53;;;;;;;6.93;4.78;;;8.40;85.20;;;;;;5040263;28;20064;-60
2022/11/15 02:06:21;;;;;;;6.25;4.70;;;8.30;84.20;;;;;;5036900;28;20033;-60
2022/11/15 02:08:47;;;;;;;7.55;4.25;;;8.30;84.30;;;;;;5037200;28;20053;-59
2022/11/15 02:11:13;;;;;;;8.93;4.65;;;8.20;84.60;;;;;;5035696;28;20341;-60
2022/11/15 02:13:39;;;;;;;6.43;4.10;;;8.10;85.00;;;;;;5038633;28;20033;-60
2022/11/15 02:16:30;;;;;;;5.07;3.65;;;8.00;85.00;;;;;;5039897;28;20405;-59
2022/11/15 02:19:20;;;;;;;4.90;3.60;;;8.00;85.10;;;;;;5038988;28;20511;-59
2022/11/15 02:21:59;;;;;;;4.55;3.30;;;7.90;85.00;;;;;;5036356;28;20045;-59
2022/11/15 02:24:54;;;;;;;6.03;3.58;;;7.90;85.00;;;;;;5036020;28;20029;-60
2022/11/15 02:27:35;;;;;;;5.32;3.40;;;7.90;84.90;;;;;;5037726;28;20034;-61
2022/11/15 02:30:13;;;;;;;7.18;3.20;;;7.90;85.00;;;;;;5037313;28;20032;-61
2022/11/15 02:33:00;;;;;;;5.35;3.80;;;7.80;84.70;;;;;;5034639;28;20037;-59
2022/11/15 02:35:29;;;;;;;4.47;3.65;;;7.80;84.50;;;;;;5037000;28;20127;-59
2022/11/15 02:37:59;;;;;;;5.40;3.42;;;7.80;84.60;;;;;;5036939;28;20091;-59
2022/11/15 02:40:56;;;;;;;7.47;3.63;;;7.80;84.70;;;;;;5034536;28;20033;-58
2022/11/15 02:49:18;;;;;;;7.93;4.35;;;7.60;84.90;;;;;;5034036;28;20087;-61
2022/11/15 02:51:46;;;;;;;7.65;4.50;;;7.50;85.00;;;;;;5034157;28;20041;-59
2022/11/15 02:54:15;;;;;;;6.78;4.50;;;7.50;86.20;;;;;;5037395;28;20039;-60
2022/11/15 02:56:45;;;;;;;5.25;4.00;;;7.40;85.60;;;;;;5034508;28;20124;-60
2022/11/15 02:59:23;;;;;;;5.53;3.53;;;7.40;85.90;;;;;;5036011;28;20041;-61
2022/11/15 03:02:01;;;;;;;7.97;3.85;;;7.40;86.90;;;;;;5032791;28;20125;-59
2022/11/15 03:04:37;;;;;;;5.72;3.55;;;7.40;86.40;;;;;;5035304;28;20091;-60
2022/11/15 03:07:16;;;;;;;5.53;3.40;;;7.30;86.30;;;;;;5036541;28;20420;-61
2022/11/15 03:09:54;;;;;;;4.57;3.28;;;7.30;86.80;;;;;;5037653;28;20065;-59
2022/11/15 03:12:20;;;;;;;5.05;2.90;;;7.30;86.90;;;;;;5031847;28;20409;-58
2022/11/15 03:15:12;;;;;;;4.47;3.25;;;7.20;86.90;;;;;;5035615;28;20037;-60
2022/11/15 03:17:54;;;;;;;4.45;3.40;;;7.30;87.40;;;;;;5037027;28;20119;-59
2022/11/15 03:20:20;;;;;;;4.60;3.97;;;7.30;87.40;;;;;;5035592;28;20045;-59
2022/11/15 03:22:49;;;;;;;7.32;3.47;;;7.30;87.10;;;;;;5035517;28;20032;-61
2022/11/15 03:25:23;;;;;;;3.80;3.00;;;7.30;86.90;;;;;;5035222;28;20528;-59
2022/11/15 03:27:52;;;;;;;;;;;7.30;86.90;;;;;;5036067;28;20033;-61
2022/11/15 03:30:18;;;;;;;4.78;3.28;;;7.30;87.30;;;;;;5035911;28;20368;-59
2022/11/15 03:32:47;;;;;;;3.72;3.38;;;7.30;86.70;;;;;;5036164;28;20041;-59
2022/11/15 03:35:19;;;;;;;4.63;3.47;;;7.30;86.80;;;;;;5036335;28;20033;-61
2022/11/15 03:38:03;;;;;;;4.68;3.40;;;7.30;86.80;;;;;;5033122;28;20036;-61
2022/11/15 03:40:40;;;;;;;5.22;3.78;;;7.30;86.90;;;;;;5034716;28;20509;-60
2022/11/15 03:43:12;;;;;;;4.85;3.30;;;7.30;87.00;;;;;;5032549;28;20148;-61
2022/11/15 03:45:56;;;;;;;4.15;3.30;;;7.40;87.10;;;;;;5036383;28;20041;-61
2022/11/15 03:48:26;;;;;;;4.10;3.00;;;7.40;87.30;;;;;;5035945;28;20044;-60
2022/11/15 03:50:53;;;;;;;4.03;3.47;;;7.40;87.10;;;;;;5035984;28;20039;-60
2022/11/15 03:53:18;;;;;;;4.47;3.35;;;7.40;87.20;;;;;;5032482;28;20069;-61
2022/11/15 03:55:44;;;;;;;3.90;3.20;;;7.40;87.20;;;;;;5034499;28;20226;-61
2022/11/15 03:58:10;;;;;;;5.60;3.40;;;7.50;87.30;;;;;;5035325;28;20120;-60
2022/11/15 04:00:35;;;;;;;7.35;3.75;;;7.50;87.30;;;;;;5034424;28;20470;-61
2022/11/15 04:03:01;;;;;;;4.55;3.67;;;7.60;87.30;;;;;;5033206;28;20159;-60
2022/11/15 04:05:27;;;;;;;5.63;4.00;;;7.60;87.10;;;;;;5033848;28;20037;-60
2022/11/15 04:07:52;;;;;;;4.38;3.78;;;7.60;87.10;;;;;;5034120;28;20038;-61
2022/11/15 04:10:18;;;;;;;4.85;3.67;;;7.60;87.00;;;;;;5033046;28;20066;-59
2022/11/15 04:12:47;;;;;;;3.92;3.50;;;7.60;87.00;;;;;;5034446;28;20041;-58
2022/11/15 04:15:16;;;;;;;4.05;3.65;;;7.60;86.90;;;;;;5037341;28;20029;-60
2022/11/15 04:17:47;;;;;;;3.55;3.00;;;7.60;86.90;;;;;;5038108;28;20112;-60
2022/11/15 04:25:49;;;;;;;7.40;3.47;;;7.60;86.60;;;;;;5036411;28;20532;-59
2022/11/15 04:28:14;;;;;;;7.07;3.97;;;7.60;86.50;;;;;;5036420;28;20061;-59
2022/11/15 04:30:40;;;;;;;7.22;3.67;;;7.60;86.30;;;;;;5035703;28;20065;-61
2022/11/15 04:33:06;;;;;;;5.88;3.55;;;7.50;86.20;;;;;;5037513;28;20095;-60
2022/11/15 04:35:32;;;;;;;8.27;4.70;;;7.50;86.50;;;;;;5037694;28;20052;-61
2022/11/15 04:37:58;;;;;;;5.85;3.90;;;7.50;85.90;;;;;;5037803;28;20037;-61
2022/11/15 04:40:24;;;;;;;6.75;4.22;;;7.40;86.00;;;;;;5037912;28;20061;-61
2022/11/15 04:42:49;;;;;;;14.73;8.90;;;7.40;86.20;;;;;;5037375;28;20065;-60
2022/11/15 04:45:15;;;;;;;8.02;5.65;;;7.40;86.40;;;;;;5038058;28;20040;-59
2022/11/15 04:47:44;;;;;;;7.78;4.53;;;7.40;86.40;;;;;;5037299;28;20060;-62
2022/11/15 04:50:13;;;;;;;7.18;4.65;;;7.40;86.60;;;;;;5035749;28;20144;-61
2022/11/15 04:52:40;;;;;;;4.70;4.13;;;7.40;86.60;;;;;;5034395;28;20121;-59
2022/11/15 04:55:05;;;;;;;6.82;3.92;;;7.40;86.50;;;;;;5036796;28;20025;-59
2022/11/15 04:57:31;;;;;;;10.90;4.03;;;7.40;86.20;;;;;;5036844;28;20033;-61
2022/11/15 04:59:57;;;;;;;6.72;4.78;;;7.30;86.00;;;;;;5037232;28;20029;-58
2022/11/15 05:02:22;;;;;;;7.55;5.15;;;7.30;86.10;;;;;;5035904;28;20107;-61
2022/11/15 05:04:48;;;;;;;8.30;6.30;;;7.30;86.20;;;;;;5037544;28;20033;-59
2022/11/15 05:07:13;;;;;;;9.98;6.07;;;7.30;86.20;;;;;;5038971;28;20488;-59
2022/11/15 05:09:39;;;;;;;8.40;6.45;;;7.30;86.20;;;;;;5035078;28;20037;-60
2022/11/15 05:12:04;;;;;;;9.52;6.60;;;7.30;86.10;;;;;;5030818;28;22171;-60
2022/11/15 05:14:30;;;;;;;9.57;6.28;;;7.30;86.20;;;;;;5032417;28;20037;-59
2022/11/15 05:16:55;;;;;;;10.35;6.80;;;7.30;86.40;;;;;;5035656;28;20030;-59
2022/11/15 05:19:21;;;;;;;11.75;6.55;;;7.30;86.60;;;;;;5033581;28;20458;-61
2022/11/15 05:21:47;;;;;;;10.63;6.20;;;7.20;86.60;;;;;;5030991;28;20029;-61
2022/11/15 05:24:12;;;;;;;12.63;6.05;;;7.30;86.40;;;;;;5027549;28;20111;-61
2022/11/15 05:26:38;;;;;;;10.20;5.63;;;7.30;86.40;;;;;;5024890;28;20029;-61
2022/11/15 05:29:04;;;;;;;9.93;5.32;;;7.30;86.30;;;;;;5027279;28;20653;-59
2022/11/15 05:31:29;;;;;;;9.55;5.13;;;7.30;86.40;;;;;;5029343;28;20029;-62
2022/11/15 05:33:58;;;;;;;13.30;4.80;;;7.30;86.60;;;;;;5032559;28;20049;-60
2022/11/15 05:36:29;;;;;;;8.85;4.47;;;7.30;86.70;;;;;;5034153;28;20029;-61
2022/11/15 05:38:55;;;;;;;6.68;4.22;;;7.30;86.70;;;;;;5034456;28;20037;-61
2022/11/15 05:41:25;;;;;;;8.35;4.88;;;7.30;86.70;;;;;;5036216;28;20156;-61
2022/11/15 05:43:51;;;;;;;7.88;5.05;;;7.20;86.60;;;;;;5033826;28;20060;-60
2022/11/15 05:46:18;;;;;;;8.73;4.78;;;7.20;86.80;;;;;;5033653;28;20033;-62
2022/11/15 05:48:47;;;;;;;7.75;4.90;;;7.30;86.90;;;;;;5033840;28;20389;-59
2022/11/15 05:51:15;;;;;;;9.52;5.22;;;7.30;86.90;;;;;;5034528;28;20033;-61
2022/11/15 05:53:41;;;;;;;9.25;5.95;;;7.20;86.90;;;;;;5034588;28;20037;-61
2022/11/15 05:56:08;;;;;;;9.07;5.70;;;7.20;86.90;;;;;;5034336;28;20048;-61
2022/11/15 05:58:34;;;;;;;9.23;6.50;;;7.20;87.10;;;;;;5034039;28;20125;-61
2022/11/15 06:01:00;;;;;;;11.40;7.05;;;7.20;87.30;;;;;;5037289;28;20126;-60
2022/11/15 06:03:26;;;;;;;24.27;12.57;;;7.20;87.40;;;;;;5038036;28;20530;-61
2022/11/15 06:05:51;;;;;;;10.52;6.97;;;7.20;87.50;;;;;;5036907;28;20124;-61
2022/11/15 06:08:17;;;;;;;8.48;5.82;;;7.20;87.60;;;;;;5037970;28;20090;-61
2022/11/15 06:10:42;;;;;;;8.80;5.53;;;7.10;87.70;;;;;;5036405;28;20505;-63
2022/11/15 06:13:08;;;;;;;11.77;5.88;;;7.20;88.00;;;;;;5039111;28;20045;-61
2022/11/15 06:15:34;;;;;;;7.82;5.70;;;7.20;88.00;;;;;;5033305;28;20133;-59
2022/11/15 06:18:00;;;;;;;9.65;6.03;;;7.20;88.10;;;;;;5037068;28;20616;-59
2022/11/15 06:20:26;;;;;;;8.95;6.75;;;7.20;87.90;;;;;;5035854;28;20123;-61
2022/11/15 06:23:00;;;;;;;11.43;6.30;;;7.30;88.00;;;;;;5038291;28;20095;-61
2022/11/15 06:25:26;;;;;;;11.98;6.97;;;7.30;87.80;;;;;;5035731;28;20038;-60
2022/11/15 06:27:53;;;;;;;10.73;6.45;;;7.30;87.80;;;;;;5037782;28;20069;-60
2022/11/15 06:30:20;;;;;;;9.82;6.57;;;7.30;87.80;;;;;;5034566;28;20132;-61
2022/11/15 06:32:45;;;;;;;14.32;7.05;;;7.30;87.70;;;;;;5036851;28;20144;-61
2022/11/15 06:35:11;;;;;;;12.57;7.00;;;7.40;87.50;;;;;;5036555;28;20461;-61
2022/11/15 06:37:37;;;;;;;9.88;6.68;;;7.40;87.50;;;;;;5036931;28;20041;-61
2022/11/15 06:40:02;;;;;;;10.55;6.50;;;7.40;87.50;;;;;;5035677;28;20191;-61
2022/11/15 06:42:28;;;;;;;13.45;6.50;;;7.40;87.60;;;;;;5035818;28;20405;-61
2022/11/15 06:44:54;;;;;;;8.73;6.22;;;7.40;87.60;;;;;;5035600;28;20478;-62
2022/11/15 06:47:19;;;;;;;16.40;7.03;;;7.40;87.40;;;;;;5035331;28;20033;-59
2022/11/15 06:49:45;;;;;;;45.17;8.98;;;7.40;87.30;;;;;;5036278;28;20128;-61
2022/11/15 06:52:10;;;;;;;14.10;8.02;;;7.40;87.30;;;;;;5037104;28;20067;-61
2022/11/15 06:54:36;;;;;;;13.63;7.10;;;7.40;87.40;;;;;;5036474;28;20108;-59
2022/11/15 06:57:03;;;;;;;14.80;7.75;;;7.40;87.60;;;;;;5036656;28;20182;-62
2022/11/15 06:59:29;;;;;;;26.42;7.10;;;7.40;87.60;;;;;;5036671;28;20379;-60
2022/11/15 07:01:54;;;;;;;29.52;6.72;;;7.30;87.70;;;;;;5035154;28;20025;-61
2022/11/15 07:04:20;;;;;;;60.97;7.50;;;7.30;87.90;;;;;;5037202;28;20029;-61
2022/11/15 07:06:48;;;;;;;67.22;9.63;;;7.30;88.00;;;;;;5034594;28;20519;-62
2022/11/15 07:09:14;;;;;;;47.92;8.48;;;7.20;88.10;;;;;;5035132;28;20494;-59
2022/11/15 07:11:40;;;;;;;43.20;7.97;;;7.20;88.10;;;;;;5034726;28;20179;-61
2022/11/15 07:14:06;;;;;;;36.80;6.43;;;7.20;88.20;;;;;;5034821;28;20049;-61
2022/11/15 07:16:31;;;;;;;54.88;8.27;;;7.10;88.30;;;;;;5034611;28;20608;-62
2022/11/15 07:18:57;;;;;;;60.45;7.95;;;7.10;88.60;;;;;;5037486;28;20635;-61
2022/11/15 07:21:23;;;;;;;90.75;8.63;;;7.00;88.90;;;;;;5036770;28;20108;-62
2022/11/15 07:23:48;;;;;;;120.07;9.23;;;7.00;89.30;;;;;;5036628;28;20049;-62
2022/11/15 07:26:14;;;;;;;150.20;9.60;;;7.00;89.40;;;;;;5035886;28;20495;-62
2022/11/15 07:28:39;;;;;;;163.05;10.23;;;6.90;89.50;;;;;;5036368;28;20036;-59
2022/11/15 07:31:07;;;;;;;115.53;8.63;;;6.90;89.80;;;;;;5037005;28;20064;-60
2022/11/15 07:33:33;;;;;;;111.25;8.13;;;6.90;90.00;;;;;;5037546;28;20350;-61
2022/11/15 07:36:04;;;;;;;81.13;9.32;;;6.90;90.10;;;;;;5037718;28;20429;-61
2022/11/15 07:38:31;;;;;;;105.63;8.65;;;6.90;90.20;;;;;;5034812;28;20065;-60
2022/11/15 07:40:58;;;;;;;71.05;7.90;;;7.00;90.20;;;;;;5038448;28;20040;-60
2022/11/15 07:43:24;;;;;;;92.70;8.18;;;7.00;90.20;;;;;;5037083;28;20087;-62
2022/11/15 07:45:50;;;;;;;82.57;7.45;;;7.00;90.20;;;;;;5038782;28;20048;-61
2022/11/15 07:48:15;;;;;;;51.25;9.18;;;7.00;90.20;;;;;;5039831;28;20556;-61
2022/11/15 07:50:42;;;;;;;52.90;7.82;;;7.00;90.30;;;;;;5036734;28;20593;-62
2022/11/15 07:53:09;;;;;;;60.28;8.82;;;7.10;90.40;;;;;;5038399;28;20051;-60
2022/11/15 07:55:34;;;;;;;32.20;8.30;;;7.10;90.30;;;;;;5035841;28;20037;-61
2022/11/15 07:58:10;;;;;;;77.95;7.90;;;7.20;90.40;;;;;;5036900;28;20412;-61
2022/11/15 08:00:37;;;;;;;17.95;7.50;;;7.20;90.40;;;;;;5037089;28;20044;-62
2022/11/15 08:03:14;;;;;;;41.17;7.30;;;7.20;90.40;;;;;;5036627;28;20152;-61
2022/11/15 08:05:41;;;;;;;32.17;6.18;;;7.30;90.40;;;;;;5039048;28;20363;-60
2022/11/15 08:08:08;;;;;;;36.85;6.32;;;7.30;90.20;;;;;;5034739;28;20044;-61
2022/11/15 08:10:34;;;;;;;56.85;6.88;;;7.40;90.20;;;;;;5035080;28;20061;-62
2022/11/15 08:13:00;;;;;;;49.88;6.90;;;7.40;90.20;;;;;;5034581;28;20547;-59
2022/11/15 08:15:27;;;;;;;48.53;6.43;;;7.50;90.20;;;;;;5034483;28;20094;-61
2022/11/15 08:18:01;;;;;;;24.25;6.40;;;7.50;90.20;;;;;;5035822;28;20167;-60
2022/11/15 08:20:29;;;;;;;23.33;6.75;;;7.50;90.20;;;;;;5036740;28;20041;-61
2022/11/15 08:22:59;;;;;;;9.80;5.30;;;7.50;90.20;;;;;;5036323;28;20060;-61
2022/11/15 08:25:28;;;;;;;49.42;6.00;;;7.50;90.20;;;;;;5035786;28;20039;-61
2022/11/15 08:27:59;;;;;;;20.83;5.85;;;7.60;90.10;;;;;;5035185;28;20069;-61
2022/11/15 08:30:25;;;;;;;52.17;6.07;;;7.60;90.00;;;;;;5036979;28;20080;-61
2022/11/15 08:32:51;;;;;;;67.57;6.32;;;7.60;90.00;;;;;;5034051;28;20044;-61
2022/11/15 08:35:18;;;;;;;84.68;6.20;;;7.60;90.00;;;;;;5034496;28;20044;-61
2022/11/15 08:37:43;;;;;;;14.82;5.22;;;7.60;90.00;;;;;;5033753;28;20132;-61
2022/11/15 08:40:09;;;;;;;51.65;7.30;;;7.60;90.10;;;;;;5035231;28;20147;-60
2022/11/15 08:42:35;;;;;;;29.38;6.47;;;7.60;90.20;;;;;;5033731;28;20631;-62
2022/11/15 08:45:01;;;;;;;105.68;7.82;;;7.60;90.20;;;;;;5033729;28;20417;-62
2022/11/15 08:47:27;;;;;;;22.08;6.25;;;7.70;90.30;;;;;;5034140;28;20248;-62
2022/11/15 08:49:53;;;;;;;31.10;6.28;;;7.70;90.20;;;;;;5036143;28;20033;-62
2022/11/15 08:52:18;;;;;;;34.80;6.28;;;7.70;90.30;;;;;;5034295;28;20029;-62
2022/11/15 08:54:44;;;;;;;16.98;6.53;;;7.70;90.40;;;;;;5034697;28;20042;-62
2022/11/15 08:57:10;;;;;;;9.80;6.18;;;7.70;90.50;;;;;;5034696;28;20036;-61
2022/11/15 08:59:36;;;;;;;9.10;5.47;;;7.70;90.60;;;;;;5035983;28;20083;-62
2022/11/15 09:02:02;;;;;;;10.02;6.00;;;7.80;90.70;;;;;;5035312;28;20037;-61
2022/11/15 09:04:28;;;;;;;7.85;6.18;;;7.80;90.80;;;;;;5035495;28;20037;-61
2022/11/15 09:06:53;;;;;;;8.98;6.35;;;7.90;90.90;;;;;;5034290;28;20045;-61
2022/11/15 09:09:19;;;;;;;7.07;6.10;;;7.90;91.00;;;;;;5035516;28;20038;-63
2022/11/15 09:11:45;;;;;;;17.70;6.75;;;7.90;91.00;;;;;;5033492;28;20044;-62
2022/11/15 09:14:12;;;;;;;23.17;8.23;;;7.90;91.00;;;;;;5035183;28;20404;-62
2022/11/15 09:16:37;;;;;;;10.65;7.57;;;8.00;91.10;;;;;;5034634;28;20044;-62
2022/11/15 09:19:03;;;;;;;10.45;7.43;;;8.10;91.20;;;;;;5035210;28;20029;-62
2022/11/15 09:21:29;;;;;;;12.73;8.43;;;8.10;91.20;;;;;;5037037;28;20033;-62
2022/11/15 09:23:55;;;;;;;12.00;8.50;;;8.10;91.30;;;;;;5030352;28;20132;-62
2022/11/15 09:26:20;;;;;;;10.00;7.75;;;8.20;91.30;;;;;;5034011;28;20075;-62
2022/11/15 09:28:46;;;;;;;10.68;7.78;;;8.30;91.40;;;;;;5035338;28;20040;-62
2022/11/15 09:31:12;;;;;;;15.10;8.40;;;8.40;91.40;;;;;;5035657;28;20460;-62
2022/11/15 09:33:37;;;;;;;11.55;8.57;;;8.50;91.40;;;;;;5034480;28;20053;-62
2022/11/15 09:36:06;;;;;;;9.98;8.05;;;8.60;91.40;;;;;;5038871;28;20041;-62
2022/11/15 09:38:32;;;;;;;10.50;8.27;;;8.60;91.40;;;;;;5039113;28;20108;-61
2022/11/15 09:41:13;;;;;;;10.00;8.13;;;8.70;91.40;;;;;;5038378;28;20041;-62
2022/11/15 09:44:07;;;;;;;11.95;8.75;;;8.80;91.50;;;;;;5039007;28;20036;-62
2022/11/15 09:46:45;;;;;;;11.25;8.95;;;8.90;91.40;;;;;;5037058;28;20711;-61
2022/11/15 09:49:14;;;;;;;11.20;8.45;;;9.00;91.40;;;;;;5040128;28;20066;-62
2022/11/15 09:51:47;;;;;;;10.27;8.00;;;9.00;91.20;;;;;;5037770;28;20506;-62
2022/11/15 09:54:33;;;;;;;10.18;8.20;;;9.00;91.10;;;;;;5041130;28;20068;-61
2022/11/15 09:57:14;;;;;;;12.43;9.55;;;9.00;91.20;;;;;;5039603;28;20033;-61
2022/11/15 09:59:58;;;;;;;12.85;8.38;;;9.10;91.10;;;;;;5039854;28;20065;-62
2022/11/15 10:02:30;;;;;;;11.95;8.80;;;9.20;91.00;;;;;;5039599;28;20128;-62
2022/11/15 10:04:58;;;;;;;11.70;8.80;;;9.20;91.00;;;;;;5038120;28;20029;-62
2022/11/15 10:07:36;;;;;;;13.55;8.35;;;9.20;91.00;;;;;;5041683;28;20644;-62
2022/11/15 10:10:19;;;;;;;11.35;8.93;;;9.30;91.00;;;;;;5036465;28;20037;-62
2022/11/15 10:12:49;;;;;;;13.80;8.55;;;9.30;90.90;;;;;;5034837;28;20128;-62
2022/11/15 10:15:22;;;;;;;9.80;8.05;;;9.40;90.90;;;;;;5040969;28;20141;-62
2022/11/15 10:18:07;;;;;;;10.77;8.25;;;9.50;90.90;;;;;;5040614;28;20562;-62
2022/11/15 10:21:12;;;;;;;10.30;8.35;;;9.50;91.00;;;;;;5040699;28;20042;-62
2022/11/15 10:23:38;;;;;;;9.80;8.13;;;9.70;91.10;;;;;;5039025;28;20033;-62
2022/11/15 10:26:09;;;;;;;10.73;8.88;;;9.80;90.90;;;;;;5040987;28;20404;-61
2022/11/15 10:28:35;;;;;;;14.57;8.30;;;9.80;90.80;;;;;;5040416;28;20512;-59
2022/11/15 10:31:01;;;;;;;14.52;8.65;;;9.90;90.80;;;;;;5039894;28;20175;-62
2022/11/15 10:33:36;;;;;;;12.68;8.65;;;10.00;90.80;;;;;;5040079;28;20036;-62
2022/11/15 10:36:25;;;;;;;12.48;9.23;;;10.10;90.80;;;;;;5040067;28;20520;-62
2022/11/15 10:38:50;;;;;;;11.63;9.10;;;10.20;91.00;;;;;;5039264;28;20041;-60
2022/11/15 10:41:29;;;;;;;10.55;8.35;;;10.30;90.80;;;;;;5040172;28;20036;-60
2022/11/15 10:44:06;;;;;;;14.05;9.00;;;10.40;90.70;;;;;;5035431;28;20280;-61
2022/11/15 10:46:33;;;;;;;10.95;8.45;;;10.50;90.70;;;;;;5036214;28;20693;-62
2022/11/15 10:49:28;;;;;;;11.30;9.00;;;10.60;90.60;;;;;;5037646;28;20033;-60
2022/11/15 10:52:02;;;;;;;12.03;8.97;;;10.70;90.40;;;;;;5037952;28;20045;-60
2022/11/15 10:54:42;;;;;;;14.88;8.95;;;10.80;90.20;;;;;;5037377;28;20040;-60
2022/11/15 10:57:14;;;;;;;15.13;9.40;;;10.90;90.20;;;;;;5037838;28;20045;-62
2022/11/15 10:59:47;;;;;;;13.50;10.32;;;10.90;90.20;;;;;;5038967;28;20514;-61
2022/11/15 11:02:31;;;;;;;11.52;8.77;;;11.00;90.20;;;;;;5038598;28;20068;-60
2022/11/15 11:04:57;;;;;;;15.32;9.60;;;11.10;90.10;;;;;;5037659;28;20037;-62
2022/11/15 11:07:26;;;;;;;13.65;10.70;;;11.20;90.10;;;;;;5038318;28;20040;-62
2022/11/15 11:10:16;;;;;;;10.32;8.10;;;11.20;90.10;;;;;;5037765;28;20264;-60
2022/11/15 11:12:42;;;;;;;8.93;7.18;;;11.40;89.90;;;;;;5038598;28;20073;-61
2022/11/15 11:15:13;;;;;;;8.80;7.13;;;11.50;89.70;;;;;;5040040;28;20091;-61
2022/11/15 11:17:48;;;;;;;7.57;6.60;;;11.60;89.00;;;;;;5039939;28;20148;-60
2022/11/15 11:20:22;;;;;;;11.35;6.80;;;11.60;88.60;;;;;;5040094;28;20047;-61
2022/11/15 11:23:06;;;;;;;8.65;6.50;;;11.70;88.50;;;;;;5039316;28;20064;-61
2022/11/15 11:26:29;;;;;;;9.48;7.53;;;11.80;87.90;;;;;;5039726;28;20041;-59
2022/11/15 11:29:17;;;;;;;9.77;7.15;;;11.90;87.50;;;;;;5031641;28;20037;-61
2022/11/15 11:32:04;;;;;;;8.98;6.72;;;12.00;88.20;;;;;;5039088;28;20036;-60
2022/11/15 11:34:58;;;;;;;9.73;6.70;;;12.10;86.00;;;;;;5039133;28;20037;-62
2022/11/15 11:37:30;;;;;;;8.88;6.90;;;12.10;85.20;;;;;;5035819;28;20136;-62
2022/11/15 11:40:28;;;;;;;9.80;6.40;;;12.20;85.80;;;;;;5033683;28;20029;-61
2022/11/15 11:43:12;;;;;;;8.68;6.47;;;12.20;85.90;;;;;;5034277;28;20033;-61
2022/11/15 11:46:04;;;;;;;7.25;6.28;;;12.30;85.80;;;;;;5038233;28;20035;-60
2022/11/15 11:48:48;;;;;;;9.75;6.63;;;12.40;86.10;;;;;;5037264;28;20183;-61
2022/11/15 11:51:33;;;;;;;7.60;6.22;;;12.40;85.90;;;;;;5037665;28;20057;-61
2022/11/15 11:54:12;;;;;;;8.70;6.65;;;12.50;85.60;;;;;;5037652;28;20419;-62
2022/11/15 11:56:41;;;;;;;7.85;5.93;;;12.60;85.70;;;;;;5036928;28;20056;-62
2022/11/15 11:59:22;;;;;;;7.50;6.05;;;12.60;85.70;;;;;;5037770;28;20040;-62
2022/11/15 12:01:48;;;;;;;10.07;5.75;;;12.70;85.70;;;;;;5037565;28;20562;-62
2022/11/15 12:04:30;;;;;;;8.35;6.38;;;12.80;85.80;;;;;;5035878;28;20045;-61
2022/11/15 12:07:26;;;;;;;7.40;6.50;;;12.80;85.70;;;;;;5036922;28;20049;-62
2022/11/15 12:10:26;;;;;;;9.13;7.03;;;12.90;84.50;;;;;;5037138;28;20056;-62
2022/11/15 12:13:09;;;;;;;8.80;6.70;;;13.00;84.30;;;;;;5034030;28;20052;-60
2022/11/15 12:15:47;;;;;;;9.65;7.20;;;13.00;84.90;;;;;;5037019;28;20037;-62
2022/11/15 12:18:15;;;;;;;9.00;6.50;;;13.00;85.00;;;;;;5036954;28;20421;-62
2022/11/15 12:20:52;;;;;;;8.23;6.25;;;13.10;85.40;;;;;;5036483;28;20041;-62
2022/11/15 12:23:31;;;;;;;9.95;6.30;;;13.10;85.40;;;;;;5037909;28;20040;-61
2022/11/15 12:26:06;;;;;;;8.35;6.28;;;13.20;86.00;;;;;;5036133;28;20053;-62
2022/11/15 12:28:41;;;;;;;10.45;5.85;;;13.20;85.40;;;;;;5035284;28;20037;-62
2022/11/15 12:31:13;;;;;;;8.18;6.18;;;13.30;85.20;;;;;;5036278;28;20060;-62
2022/11/15 12:33:41;;;;;;;7.28;5.57;;;13.40;85.10;;;;;;5036501;28;20122;-61
2022/11/15 12:36:32;;;;;;;7.82;5.70;;;13.40;84.80;;;;;;5036341;28;20071;-62
2022/11/15 12:38:59;;;;;;;6.93;5.40;;;13.50;84.50;;;;;;5036730;28;20034;-62
2022/11/15 12:41:30;;;;;;;8.85;4.93;;;13.50;84.70;;;;;;5036774;28;20386;-61
2022/11/15 12:43:57;;;;;;;5.35;4.70;;;13.60;84.00;;;;;;5030959;28;20049;-62
2022/11/15 12:46:29;;;;;;;5.85;3.92;;;13.60;84.00;;;;;;5036756;28;20508;-62
2022/11/15 12:49:02;;;;;;;4.63;4.10;;;13.60;83.50;;;;;;5036170;28;20114;-61
2022/11/15 12:51:42;;;;;;;5.05;4.55;;;13.70;83.60;;;;;;5035799;28;20103;-61
2022/11/15 12:54:23;;;;;;;5.25;3.85;;;13.80;83.00;;;;;;5030396;28;20052;-61
2022/11/15 12:57:04;;;;;;;6.78;4.05;;;13.80;82.70;;;;;;5029754;28;20041;-62
2022/11/15 12:59:58;;;;;;;5.40;3.72;;;13.80;82.10;;;;;;5029965;28;20484;-62
2022/11/15 13:02:40;;;;;;;5.07;3.70;;;13.90;81.90;;;;;;5030363;28;20048;-62
2022/11/15 13:05:18;;;;;;;4.13;3.72;;;14.00;82.10;;;;;;5034911;28;20524;-60
2022/11/15 13:07:44;;;;;;;6.05;3.65;;;14.00;81.90;;;;;;5032268;28;20080;-62
2022/11/15 13:10:12;;;;;;;4.22;3.35;;;14.00;82.40;;;;;;5033639;28;20045;-61
2022/11/15 13:12:44;;;;;;;10.38;3.60;;;14.00;82.10;;;;;;5032651;28;20168;-62
2022/11/15 13:15:12;;;;;;;3.15;2.80;;;14.10;81.90;;;;;;5034352;28;20299;-61
2022/11/15 13:17:45;;;;;;;2.75;2.53;;;14.10;81.70;;;;;;5035740;28;20072;-61
2022/11/15 13:20:11;;;;;;;10.32;6.55;;;14.20;81.10;;;;;;5035763;28;20053;-62